createdAt,value
2023-02-23T00:01:42.463Z,9.60
2023-02-23T00:04:12.559Z,9.68
2023-02-23T00:06:42.597Z,9.74
2023-02-23T00:09:22.921Z,9.71
2023-02-23T00:11:53.261Z,9.73
2023-02-23T00:14:20.300Z,9.64
2023-02-23T00:16:46.806Z,9.84
2023-02-23T00:19:16.186Z,9.81
2023-02-23T00:21:43.379Z,9.92
2023-02-23T00:24:14.738Z,9.92
2023-02-23T00:26:45.504Z,9.88
2023-02-23T00:29:23.544Z,9.74
2023-02-23T00:31:51.741Z,9.77
2023-02-23T00:34:23.826Z,9.74
2023-02-23T00:36:54.277Z,9.73
2023-02-23T00:39:23.167Z,9.76
2023-02-23T00:41:52.372Z,9.77
2023-02-23T00:44:21.255Z,9.83
2023-02-23T00:46:51.075Z,9.86
2023-02-23T00:49:19.442Z,9.87
2023-02-23T00:51:46.904Z,9.91
2023-02-23T00:54:14.566Z,9.83
2023-02-23T00:56:42.420Z,9.70
2023-02-23T00:59:12.063Z,9.74
2023-02-23T01:01:39.440Z,9.76
2023-02-23T01:04:07.350Z,9.74
2023-02-23T01:06:37.294Z,9.70
2023-02-23T01:09:08.888Z,9.73
2023-02-23T01:11:35.518Z,9.70
2023-02-23T01:14:02.439Z,9.79
2023-02-23T01:16:32.394Z,9.76
2023-02-23T01:19:01.350Z,9.75
2023-02-23T01:21:37.352Z,9.67
2023-02-23T01:24:04.702Z,9.62
2023-02-23T01:26:34.289Z,9.66
2023-02-23T01:29:09.590Z,9.64
2023-02-23T01:31:38.873Z,9.64
2023-02-23T01:34:06.535Z,9.61
2023-02-23T01:36:36.490Z,9.58
2023-02-23T01:39:06.341Z,9.71
2023-02-23T01:41:34.326Z,9.68
2023-02-23T01:44:06.969Z,9.64
2023-02-23T01:46:39.258Z,9.56
2023-02-23T01:49:10.519Z,9.61
2023-02-23T01:51:45.114Z,9.56
2023-02-23T01:54:16.267Z,9.65
2023-02-23T01:56:58.044Z,9.62
2023-02-23T01:59:30.247Z,9.60
2023-02-23T02:01:57.029Z,9.54
2023-02-23T02:04:25.358Z,9.57
2023-02-23T02:06:55.411Z,9.58
2023-02-23T02:09:28.106Z,9.52
2023-02-23T02:11:54.635Z,9.49
2023-02-23T02:14:29.478Z,9.54
2023-02-23T02:17:02.409Z,9.54
2023-02-23T02:19:59.212Z,9.59
2023-02-23T02:22:48.861Z,9.60
2023-02-23T02:25:41.078Z,9.63
2023-02-23T02:28:22.298Z,9.63
2023-02-23T02:31:26.333Z,9.61
2023-02-23T02:34:06.785Z,9.60
2023-02-23T02:37:03.223Z,9.54
2023-02-23T02:39:45.168Z,9.48
2023-02-23T02:42:19.177Z,9.51
2023-02-23T02:44:54.806Z,9.43
2023-02-23T02:48:06.644Z,9.50
2023-02-23T02:50:40.362Z,9.48
2023-02-23T02:53:12.112Z,9.51
2023-02-23T02:55:43.792Z,9.51
2023-02-23T02:58:12.541Z,9.48
2023-02-23T03:01:00.624Z,9.54
2023-02-23T03:04:06.791Z,9.53
2023-02-23T03:06:56.119Z,9.48
2023-02-23T03:10:02.190Z,9.43
2023-02-23T03:12:56.574Z,9.53
2023-02-23T03:16:38.792Z,9.51
2023-02-23T03:19:53.090Z,9.49
2023-02-23T03:22:49.653Z,9.39
2023-02-23T03:25:50.427Z,9.35
2023-02-23T03:28:41.080Z,9.35
2023-02-23T03:31:34.234Z,9.26
2023-02-23T03:34:57.988Z,9.26
2023-02-23T03:37:52.417Z,9.13
2023-02-23T03:40:40.548Z,9.06
2023-02-23T03:43:32.151Z,9.05
2023-02-23T03:46:23.034Z,9.01
2023-02-23T03:49:09.858Z,8.96
2023-02-23T03:51:58.012Z,8.93
2023-02-23T03:54:48.898Z,8.92
2023-02-23T03:57:36.972Z,8.90
2023-02-23T04:00:26.856Z,8.85
2023-02-23T04:03:13.616Z,8.82
2023-02-23T04:06:00.466Z,8.80
2023-02-23T04:08:55.536Z,8.90
2023-02-23T04:11:49.917Z,8.84
2023-02-23T04:14:26.830Z,8.78
2023-02-23T04:16:57.389Z,8.81
2023-02-23T04:19:28.300Z,8.79
2023-02-23T04:21:55.062Z,8.80
2023-02-23T04:24:24.379Z,8.86
2023-02-23T04:26:52.045Z,8.92
2023-02-23T04:29:19.120Z,8.82
2023-02-23T04:31:46.116Z,8.83
2023-02-23T04:34:12.762Z,8.84
2023-02-23T04:36:39.505Z,8.89
2023-02-23T04:39:06.176Z,8.90
2023-02-23T04:41:32.729Z,8.79
2023-02-23T04:43:59.203Z,8.79
2023-02-23T04:46:25.955Z,8.85
2023-02-23T04:48:54.550Z,8.90
2023-02-23T04:51:21.146Z,8.88
2023-02-23T04:53:47.758Z,8.87
2023-02-23T04:56:14.656Z,8.79
2023-02-23T04:58:41.905Z,8.74
2023-02-23T05:01:09.855Z,8.80
2023-02-23T05:03:36.603Z,8.79
2023-02-23T05:06:03.202Z,8.81
2023-02-23T05:08:30.148Z,8.75
2023-02-23T05:10:56.654Z,8.67
2023-02-23T05:13:26.574Z,8.65
2023-02-23T05:15:57.922Z,8.75
2023-02-23T05:18:28.058Z,8.69
2023-02-23T05:21:02.265Z,8.70
2023-02-23T05:23:28.783Z,8.75
2023-02-23T05:26:00.002Z,8.79
2023-02-23T05:28:29.290Z,8.74
2023-02-23T05:30:56.776Z,8.71
2023-02-23T05:33:23.314Z,8.67
2023-02-23T05:35:49.815Z,8.73
2023-02-23T05:38:16.488Z,8.73
2023-02-23T05:40:43.005Z,8.71
2023-02-23T05:43:09.524Z,8.58
2023-02-23T05:45:41.413Z,8.49
2023-02-23T05:48:09.747Z,8.56
2023-02-23T05:50:36.284Z,8.61
2023-02-23T05:53:03.095Z,8.56
2023-02-23T05:55:29.834Z,8.52
2023-02-23T05:57:59.160Z,8.67
2023-02-23T06:00:27.818Z,8.65
2023-02-23T06:02:57.238Z,8.42
2023-02-23T06:05:23.776Z,8.18
2023-02-23T06:07:50.480Z,8.19
2023-02-23T06:10:17.519Z,8.33
2023-02-23T06:12:45.100Z,8.28
2023-02-23T06:15:12.105Z,8.45
2023-02-23T06:17:38.598Z,8.40
2023-02-23T06:20:07.121Z,8.49
2023-02-23T06:22:33.735Z,8.40
2023-02-23T06:25:00.255Z,8.42
2023-02-23T06:27:29.837Z,8.45
2023-02-23T06:29:57.483Z,8.48
2023-02-23T06:32:24.014Z,8.25
2023-02-23T06:34:50.544Z,8.08
2023-02-23T06:37:17.033Z,8.32
2023-02-23T06:39:43.576Z,8.35
2023-02-23T06:42:10.063Z,8.45
2023-02-23T06:44:37.241Z,8.41
2023-02-23T06:47:06.165Z,8.36
2023-02-23T06:49:32.800Z,8.42
2023-02-23T06:51:59.605Z,8.41
2023-02-23T06:54:29.181Z,8.50
2023-02-23T06:56:57.593Z,8.55
2023-02-23T06:59:26.762Z,8.56
2023-02-23T07:01:53.354Z,8.56
2023-02-23T07:04:19.901Z,8.58
2023-02-23T07:06:46.433Z,8.65
2023-02-23T07:09:12.916Z,8.57
2023-02-23T07:11:41.142Z,8.62
2023-02-23T07:14:21.426Z,8.74
2023-02-23T07:16:53.154Z,8.61
2023-02-23T07:19:19.690Z,8.75
2023-02-23T07:21:46.200Z,8.71
2023-02-23T07:24:12.991Z,8.75
2023-02-23T07:26:41.008Z,8.76
2023-02-23T07:29:07.573Z,8.80
2023-02-23T07:31:34.194Z,8.70
2023-02-23T07:34:00.732Z,8.76
2023-02-23T07:36:27.744Z,8.88
2023-02-23T07:38:54.345Z,8.94
2023-02-23T07:41:22.195Z,8.81
2023-02-23T07:43:48.977Z,8.90
2023-02-23T07:46:16.382Z,8.87
2023-02-23T07:48:45.081Z,8.89
2023-02-23T07:51:13.366Z,9.03
2023-02-23T07:53:40.329Z,9.07
2023-02-23T07:56:08.733Z,8.93
2023-02-23T07:58:35.303Z,9.15
2023-02-23T08:01:02.348Z,9.41
2023-02-23T08:03:28.954Z,9.12
2023-02-23T08:05:56.832Z,9.14
2023-02-23T08:08:23.537Z,9.17
2023-02-23T08:10:50.158Z,9.07
2023-02-23T08:13:17.215Z,9.22
2023-02-23T08:15:44.190Z,9.22
2023-02-23T08:18:11.431Z,9.23
2023-02-23T08:20:38.216Z,9.30
2023-02-23T08:23:04.914Z,9.29
2023-02-23T08:25:31.665Z,9.49
2023-02-23T08:27:59.654Z,9.52
2023-02-23T08:30:30.188Z,9.66
2023-02-23T08:33:01.564Z,9.75
2023-02-23T08:35:31.062Z,9.77
2023-02-23T08:37:58.458Z,10.01
2023-02-23T08:40:27.406Z,10.10
2023-02-23T08:42:53.887Z,10.28
2023-02-23T08:45:20.738Z,10.28
2023-02-23T08:47:47.223Z,10.26
2023-02-23T08:50:14.410Z,10.27
2023-02-23T08:52:41.089Z,10.19
2023-02-23T08:55:08.047Z,10.13
2023-02-23T08:57:35.874Z,10.03
2023-02-23T09:00:02.910Z,10.08
2023-02-23T09:02:29.487Z,10.02
2023-02-23T09:04:59.597Z,10.09
2023-02-23T09:07:30.648Z,10.02
2023-02-23T09:10:00.172Z,9.95
2023-02-23T09:12:29.603Z,9.80
2023-02-23T09:14:57.947Z,9.89
2023-02-23T09:17:30.422Z,9.89
2023-02-23T09:19:56.954Z,10.27
2023-02-23T09:22:23.501Z,10.23
2023-02-23T09:24:50.041Z,10.30
2023-02-23T09:27:16.634Z,10.52
2023-02-23T09:29:43.928Z,10.64
2023-02-23T09:32:11.903Z,10.86
2023-02-23T09:34:38.518Z,11.05
2023-02-23T09:37:05.496Z,11.10
2023-02-23T09:39:38.514Z,11.40
2023-02-23T09:42:15.687Z,11.66
2023-02-23T09:44:51.981Z,12.00
2023-02-23T09:47:51.686Z,12.10
2023-02-23T09:50:27.775Z,12.15
2023-02-23T09:53:10.578Z,12.19
2023-02-23T09:55:40.919Z,12.36
2023-02-23T09:58:27.848Z,12.77
2023-02-23T10:01:09.904Z,12.93
2023-02-23T10:03:40.351Z,13.67
2023-02-23T10:06:11.306Z,14.32
2023-02-23T10:08:51.146Z,14.70
2023-02-23T10:12:05.734Z,15.11
2023-02-23T10:14:35.219Z,16.12
2023-02-23T10:17:26.923Z,17.13
2023-02-23T10:20:05.450Z,17.96
2023-02-23T10:22:35.542Z,18.24
2023-02-23T10:25:06.713Z,18.59
2023-02-23T10:27:41.913Z,18.72
2023-02-23T10:30:29.299Z,18.69
2023-02-23T10:33:22.522Z,18.48
2023-02-23T10:35:52.401Z,18.03
2023-02-23T10:38:20.523Z,17.82
2023-02-23T10:40:53.604Z,17.46
2023-02-23T10:43:20.161Z,17.18
2023-02-23T10:45:49.091Z,17.21
2023-02-23T10:48:39.982Z,17.44
2023-02-23T10:51:14.410Z,18.39
2023-02-23T10:53:40.903Z,19.54
2023-02-23T10:56:17.196Z,19.82
2023-02-23T10:58:47.047Z,19.53
2023-02-23T11:01:16.074Z,19.80
2023-02-23T11:04:05.442Z,19.79
2023-02-23T11:06:42.290Z,20.06
2023-02-23T11:09:45.009Z,20.06
2023-02-23T11:12:23.050Z,20.44
2023-02-23T11:14:54.369Z,20.85
2023-02-23T11:17:33.961Z,21.04
2023-02-23T11:20:23.078Z,21.00
2023-02-23T11:22:52.299Z,20.89
2023-02-23T11:25:30.427Z,20.97
2023-02-23T11:27:58.897Z,21.10
2023-02-23T11:30:37.152Z,21.01
2023-02-23T11:33:12.013Z,20.93
2023-02-23T11:35:39.035Z,20.70
2023-02-23T11:38:22.230Z,20.73
2023-02-23T11:41:00.597Z,21.12
2023-02-23T11:43:30.047Z,21.35
2023-02-23T11:46:00.972Z,21.42
2023-02-23T11:48:36.649Z,21.54
2023-02-23T11:51:03.441Z,21.08
2023-02-23T11:53:44.581Z,20.22
2023-02-23T11:56:12.597Z,19.80
2023-02-23T11:58:49.884Z,19.92
2023-02-23T12:01:23.508Z,20.37
2023-02-23T12:03:57.123Z,20.96
2023-02-23T12:06:35.984Z,21.49
2023-02-23T12:09:18.584Z,21.99
2023-02-23T12:11:51.960Z,22.44
2023-02-23T12:14:54.693Z,22.72
2023-02-23T12:17:29.832Z,23.09
2023-02-23T12:20:43.717Z,23.55
2023-02-23T12:23:17.052Z,23.33
2023-02-23T12:26:01.559Z,23.25
2023-02-23T12:28:51.764Z,22.92
2023-02-23T12:31:42.388Z,22.68
2023-02-23T12:34:21.313Z,22.14
2023-02-23T12:36:58.359Z,21.60
2023-02-23T12:39:38.952Z,20.99
2023-02-23T12:42:43.046Z,20.04
2023-02-23T12:45:28.121Z,19.06
2023-02-23T12:48:06.219Z,18.50
2023-02-23T12:50:40.737Z,18.11
2023-02-23T12:53:12.626Z,17.82
2023-02-23T12:55:59.788Z,17.58
2023-02-23T12:58:30.098Z,17.30
2023-02-23T13:01:04.948Z,17.05
2023-02-23T13:03:58.611Z,16.80
2023-02-23T13:06:59.546Z,16.69
2023-02-23T13:09:47.650Z,16.58
2023-02-23T13:12:33.029Z,16.47
2023-02-23T13:15:11.663Z,16.09
2023-02-23T13:17:49.616Z,16.11
2023-02-23T13:20:38.947Z,16.04
2023-02-23T13:23:09.598Z,15.86
2023-02-23T13:25:51.255Z,15.73
2023-02-23T13:28:42.571Z,15.66
2023-02-23T13:31:29.441Z,15.70
2023-02-23T13:33:59.682Z,15.69
2023-02-23T13:36:32.235Z,15.46
2023-02-23T13:39:28.515Z,15.47
2023-02-23T13:42:36.786Z,15.46
2023-02-23T13:45:31.572Z,15.31
2023-02-23T13:48:18.765Z,15.41
2023-02-23T13:50:51.549Z,15.59
2023-02-23T13:53:38.342Z,15.70
2023-02-23T13:56:08.847Z,15.73
2023-02-23T13:58:35.776Z,15.64
2023-02-23T14:01:10.490Z,15.68
2023-02-23T14:03:43.641Z,15.55
2023-02-23T14:06:14.757Z,15.54
2023-02-23T14:08:45.057Z,15.44
2023-02-23T14:11:30.154Z,15.69
2023-02-23T14:14:04.153Z,15.69
2023-02-23T14:16:31.871Z,15.79
2023-02-23T14:19:04.539Z,15.79
2023-02-23T14:21:43.005Z,15.89
2023-02-23T14:24:25.708Z,15.91
2023-02-23T14:27:06.546Z,15.84
2023-02-23T14:30:05.586Z,15.75
2023-02-23T14:32:39.289Z,15.57
2023-02-23T14:35:19.247Z,15.31
2023-02-23T14:37:56.408Z,15.28
2023-02-23T14:40:30.655Z,15.16
2023-02-23T14:42:59.146Z,15.12
2023-02-23T14:45:28.791Z,15.08
2023-02-23T14:48:02.948Z,14.81
2023-02-23T14:50:42.057Z,14.83
2023-02-23T14:53:19.700Z,14.55
2023-02-23T14:55:49.790Z,14.56
2023-02-23T14:58:26.358Z,14.46
2023-02-23T15:00:52.853Z,14.41
2023-02-23T15:03:19.544Z,14.37
2023-02-23T15:05:52.718Z,14.38
2023-02-23T15:08:23.206Z,14.53
2023-02-23T15:11:01.599Z,14.30
2023-02-23T15:13:39.768Z,14.31
2023-02-23T15:16:32.272Z,14.16
2023-02-23T15:19:02.892Z,14.08
2023-02-23T15:21:34.586Z,13.99
2023-02-23T15:24:11.100Z,13.92
2023-02-23T15:26:40.214Z,13.96
2023-02-23T15:29:25.670Z,13.97
2023-02-23T15:31:55.323Z,13.93
2023-02-23T15:34:26.890Z,13.93
2023-02-23T15:36:59.676Z,13.87
2023-02-23T15:39:42.983Z,13.88
2023-02-23T15:42:18.839Z,13.74
2023-02-23T15:44:45.894Z,13.43
2023-02-23T15:47:28.442Z,13.59
2023-02-23T15:50:18.120Z,13.50
2023-02-23T15:52:51.375Z,13.62
2023-02-23T15:55:24.388Z,13.71
2023-02-23T15:57:58.922Z,13.86
2023-02-23T16:00:36.590Z,13.89
2023-02-23T16:03:08.021Z,13.75
2023-02-23T16:05:46.594Z,13.94
2023-02-23T16:08:23.730Z,13.96
2023-02-23T16:10:57.470Z,13.98
2023-02-23T16:13:24.208Z,13.89
2023-02-23T16:15:54.161Z,13.93
2023-02-23T16:18:28.940Z,14.07
2023-02-23T16:20:59.620Z,14.02
2023-02-23T16:23:36.091Z,14.04
2023-02-23T16:26:15.982Z,14.19
2023-02-23T16:28:45.939Z,14.18
2023-02-23T16:31:14.108Z,14.03
2023-02-23T16:33:42.015Z,13.97
2023-02-23T16:36:20.363Z,14.00
2023-02-23T16:38:52.853Z,14.04
2023-02-23T16:41:22.028Z,14.07
2023-02-23T16:43:50.148Z,14.03
2023-02-23T16:46:18.365Z,14.07
2023-02-23T16:48:45.336Z,14.09
2023-02-23T16:51:17.402Z,14.12
2023-02-23T16:53:44.514Z,14.06
2023-02-23T16:56:22.024Z,14.18
2023-02-23T16:58:58.074Z,14.16
2023-02-23T17:01:24.784Z,14.15
2023-02-23T17:03:53.898Z,14.09
2023-02-23T17:06:22.552Z,13.98
2023-02-23T17:08:57.600Z,13.81
2023-02-23T17:11:25.172Z,13.73
2023-02-23T17:13:51.620Z,13.59
2023-02-23T17:16:18.498Z,13.33
2023-02-23T17:18:45.283Z,13.37
2023-02-23T17:21:14.296Z,13.26
2023-02-23T17:23:51.209Z,13.17
2023-02-23T17:26:22.461Z,12.95
2023-02-23T17:28:52.173Z,12.94
2023-02-23T17:31:23.549Z,12.79
2023-02-23T17:33:52.623Z,12.58
2023-02-23T17:36:20.122Z,12.67
2023-02-23T17:38:46.660Z,12.45
2023-02-23T17:41:16.605Z,12.46
2023-02-23T17:43:43.408Z,12.36
2023-02-23T17:46:29.317Z,12.34
2023-02-23T17:48:56.487Z,12.29
2023-02-23T17:51:23.336Z,12.21
2023-02-23T17:53:53.191Z,12.03
2023-02-23T17:56:23.797Z,11.73
2023-02-23T17:58:50.521Z,11.65
2023-02-23T18:01:17.935Z,11.64
2023-02-23T18:03:49.836Z,11.71
2023-02-23T18:06:16.970Z,11.64
2023-02-23T18:08:47.580Z,11.48
2023-02-23T18:11:16.420Z,11.47
2023-02-23T18:13:42.926Z,11.46
2023-02-23T18:16:10.730Z,11.33
2023-02-23T18:18:43.676Z,11.43
2023-02-23T18:21:22.018Z,11.48
2023-02-23T18:23:49.916Z,11.62
2023-02-23T18:26:22.551Z,11.60
2023-02-23T18:28:51.105Z,11.52
2023-02-23T18:31:21.565Z,11.49
2023-02-23T18:33:56.509Z,11.53
2023-02-23T18:36:29.818Z,11.62
2023-02-23T18:38:58.168Z,11.65
2023-02-23T18:41:30.989Z,11.70
2023-02-23T18:43:59.700Z,11.44
2023-02-23T18:46:26.642Z,11.48
2023-02-23T18:48:54.769Z,11.41
2023-02-23T18:51:22.846Z,11.45
2023-02-23T18:53:51.949Z,11.26
2023-02-23T18:56:25.190Z,11.39
2023-02-23T18:58:58.162Z,11.35
2023-02-23T19:01:28.099Z,11.35
2023-02-23T19:03:57.842Z,11.37
2023-02-23T19:06:25.709Z,11.31
2023-02-23T19:08:55.908Z,11.22
2023-02-23T19:11:25.669Z,11.15
2023-02-23T19:13:53.749Z,11.20
2023-02-23T19:16:21.306Z,11.08
2023-02-23T19:18:50.733Z,11.16
2023-02-23T19:21:22.662Z,11.12
2023-02-23T19:23:50.753Z,11.07
2023-02-23T19:26:18.486Z,11.09
2023-02-23T19:28:48.594Z,10.94
2023-02-23T19:31:20.755Z,10.77
2023-02-23T19:33:49.758Z,10.85
2023-02-23T19:36:19.603Z,10.85
2023-02-23T19:38:46.165Z,10.73
2023-02-23T19:41:18.428Z,10.79
2023-02-23T19:43:45.963Z,10.65
2023-02-23T19:46:16.301Z,10.73
2023-02-23T19:48:45.656Z,10.71
2023-02-23T19:51:14.852Z,10.60
2023-02-23T19:53:44.637Z,10.60
2023-02-23T19:56:13.412Z,10.69
2023-02-23T19:58:46.620Z,10.80
2023-02-23T20:01:16.645Z,10.72
2023-02-23T20:03:45.128Z,10.76
2023-02-23T20:06:16.314Z,10.75
2023-02-23T20:08:44.638Z,10.70
2023-02-23T20:11:15.520Z,10.74
2023-02-23T20:13:42.313Z,10.80
2023-02-23T20:16:14.268Z,10.78
2023-02-23T20:18:41.677Z,10.89
2023-02-23T20:21:12.429Z,10.78
2023-02-23T20:23:41.636Z,10.65
2023-02-23T20:26:15.829Z,10.63
2023-02-23T20:28:42.893Z,10.65
2023-02-23T20:31:18.092Z,10.64
2023-02-23T20:33:44.797Z,10.51
2023-02-23T20:36:14.493Z,10.30
2023-02-23T20:38:43.932Z,10.21
2023-02-23T20:41:13.476Z,10.40
2023-02-23T20:43:44.048Z,10.24
2023-02-23T20:46:15.609Z,10.23
2023-02-23T20:48:42.746Z,10.11
2023-02-23T20:51:14.950Z,9.87
2023-02-23T20:53:47.124Z,10.03
2023-02-23T20:56:16.615Z,9.99
2023-02-23T20:58:43.893Z,9.94
2023-02-23T21:01:21.382Z,10.14
2023-02-23T21:03:52.450Z,10.12
2023-02-23T21:06:20.707Z,9.89
2023-02-23T21:08:50.286Z,10.04
2023-02-23T21:11:19.780Z,10.07
2023-02-23T21:13:46.707Z,9.93
2023-02-23T21:16:15.625Z,10.13
2023-02-23T21:18:42.713Z,10.10
2023-02-23T21:21:11.689Z,9.87
2023-02-23T21:23:41.055Z,10.10
2023-02-23T21:26:07.606Z,10.13
2023-02-23T21:28:35.462Z,10.15
2023-02-23T21:31:02.205Z,10.17
2023-02-23T21:33:28.762Z,10.17
2023-02-23T21:35:58.700Z,10.20
2023-02-23T21:38:25.674Z,10.18
2023-02-23T21:40:55.395Z,10.28
2023-02-23T21:43:23.064Z,10.15
2023-02-23T21:45:49.604Z,10.21
2023-02-23T21:48:16.177Z,10.25
2023-02-23T21:50:45.335Z,10.23
2023-02-23T21:53:16.162Z,10.26
2023-02-23T21:55:45.535Z,10.27
2023-02-23T21:58:15.292Z,10.20
2023-02-23T22:00:44.556Z,10.31
2023-02-23T22:03:13.878Z,10.35
2023-02-23T22:05:40.395Z,10.27
2023-02-23T22:08:06.957Z,10.23
2023-02-23T22:10:33.608Z,10.24
2023-02-23T22:13:01.033Z,10.28
2023-02-23T22:15:27.914Z,10.36
2023-02-23T22:17:55.512Z,10.28
2023-02-23T22:20:22.405Z,10.33
2023-02-23T22:22:50.472Z,10.31
2023-02-23T22:25:19.697Z,10.31
2023-02-23T22:27:46.656Z,10.36
2023-02-23T22:30:15.765Z,10.31
2023-02-23T22:32:45.233Z,10.17
2023-02-23T22:35:11.811Z,10.20
2023-02-23T22:37:39.224Z,10.18
2023-02-23T22:40:18.842Z,10.10
2023-02-23T22:42:49.284Z,10.06
2023-02-23T22:45:16.771Z,10.15
2023-02-23T22:47:45.676Z,10.13
2023-02-23T22:50:16.321Z,10.28
2023-02-23T22:52:43.097Z,10.32
2023-02-23T22:55:09.959Z,10.17
2023-02-23T22:57:36.642Z,9.95
2023-02-23T23:00:07.111Z,10.08
2023-02-23T23:02:33.635Z,10.09
2023-02-23T23:05:01.785Z,10.13
2023-02-23T23:07:29.111Z,10.00
2023-02-23T23:09:55.644Z,9.99
2023-02-23T23:12:22.242Z,10.00
2023-02-23T23:14:48.774Z,9.94
2023-02-23T23:17:18.103Z,9.94
2023-02-23T23:19:45.010Z,9.94
2023-02-23T23:22:14.501Z,9.98
2023-02-23T23:24:48.073Z,10.12
2023-02-23T23:27:14.727Z,10.02
2023-02-23T23:29:45.651Z,9.84
2023-02-23T23:32:27.499Z,9.92
2023-02-23T23:34:57.276Z,9.85
2023-02-23T23:37:23.818Z,9.79
2023-02-23T23:39:59.200Z,9.78
2023-02-23T23:42:26.575Z,9.92
2023-02-23T23:44:56.534Z,9.97
2023-02-23T23:47:23.232Z,9.89
2023-02-23T23:49:49.993Z,9.68
2023-02-23T23:52:21.288Z,9.93
2023-02-23T23:54:52.696Z,10.02
2023-02-23T23:57:21.190Z,10.18
2023-02-23T23:59:51.583Z,10.20
